createdAt,value
2022-10-06T05:49:58.489Z,101301.88
2022-10-06T05:52:35.979Z,101298.25
2022-10-06T05:55:13.621Z,101308.69
2022-10-06T05:57:50.947Z,101308.41
2022-10-06T06:00:27.933Z,101324.91
2022-10-06T06:03:05.914Z,101313.63
2022-10-06T06:05:47.631Z,101326.34
2022-10-06T06:08:25.346Z,101332.88
2022-10-06T06:11:10.780Z,101340.84
2022-10-06T06:13:47.921Z,101344.84
2022-10-06T06:16:22.083Z,101338.88
2022-10-06T06:18:59.439Z,101347.81
2022-10-06T06:21:39.090Z,101349.72
2022-10-06T06:24:16.999Z,101358.91
2022-10-06T06:26:53.773Z,101362.19
2022-10-06T06:29:31.037Z,101369.28
2022-10-06T06:32:09.950Z,101375.34
2022-10-06T06:34:47.509Z,101380.19
2022-10-06T06:37:27.090Z,101384.19
2022-10-06T06:40:04.958Z,101384.91
2022-10-06T06:42:48.260Z,101394.25
2022-10-06T06:45:28.810Z,101403.69
2022-10-06T06:48:16.709Z,101413.63
2022-10-06T06:51:01.463Z,101407.38
2022-10-06T06:53:43.859Z,101423.28
2022-10-06T06:56:21.599Z,101422.34
2022-10-06T06:58:59.010Z,101429.25
2022-10-06T07:01:37.235Z,101415.72
2022-10-06T07:04:15.859Z,101408.16
2022-10-06T07:06:58.764Z,101426.75
2022-10-06T07:09:43.610Z,101434.66
2022-10-06T07:12:22.919Z,101431.84
2022-10-06T07:15:16.590Z,101446.78
2022-10-06T07:18:09.229Z,101435.81
2022-10-06T07:20:58.819Z,101443.56
2022-10-06T07:24:03.459Z,101449.97
2022-10-06T07:26:43.200Z,101456.91
2022-10-06T07:29:20.547Z,101457.63
2022-10-06T07:31:58.380Z,101463.41
2022-10-06T07:34:36.956Z,101471.47
2022-10-06T07:37:13.865Z,101474.00
2022-10-06T07:39:52.509Z,101478.78
2022-10-06T07:42:48.181Z,101487.66
2022-10-06T07:45:42.805Z,101502.69
2022-10-06T07:48:26.579Z,101506.06
2022-10-06T07:51:16.771Z,101508.91
2022-10-06T07:53:54.259Z,101519.63
2022-10-06T07:56:51.442Z,101522.84
2022-10-06T07:59:30.909Z,101527.00
2022-10-06T08:02:08.106Z,101528.41
2022-10-06T08:04:45.113Z,101527.44
2022-10-06T08:07:22.325Z,101531.88
2022-10-06T08:09:59.157Z,101546.56
2022-10-06T08:12:38.106Z,101541.06
2022-10-06T08:15:18.729Z,101547.47
2022-10-06T08:17:57.290Z,101558.19
2022-10-06T08:20:34.309Z,101559.63
2022-10-06T08:23:12.700Z,101559.09
2022-10-06T08:25:56.700Z,101589.03
2022-10-06T08:28:33.885Z,101587.31
2022-10-06T08:31:15.992Z,101584.38
2022-10-06T08:33:57.381Z,101593.25
2022-10-06T08:36:34.261Z,101601.94
2022-10-06T08:39:11.490Z,101600.66
2022-10-06T08:41:55.130Z,101601.78
2022-10-06T08:44:43.049Z,101611.28
2022-10-06T08:47:25.992Z,101612.84
2022-10-06T08:50:04.368Z,101615.69
2022-10-06T08:52:55.384Z,101624.63
2022-10-06T08:55:42.275Z,101623.44
2022-10-06T08:58:38.135Z,101628.28
2022-10-06T09:01:23.879Z,101645.72
2022-10-06T09:04:08.800Z,101647.88
2022-10-06T09:06:55.503Z,101650.78
2022-10-06T09:10:06.534Z,101667.03
2022-10-06T09:12:49.833Z,101677.28
2022-10-06T09:15:37.074Z,101673.41
2022-10-06T09:18:22.722Z,101658.69
2022-10-06T09:21:06.497Z,101659.41
2022-10-06T09:23:53.701Z,101668.44
2022-10-06T09:26:37.936Z,101681.00
2022-10-06T09:29:15.394Z,101680.72
2022-10-06T09:31:53.209Z,101711.53
2022-10-06T09:34:46.041Z,101717.47
2022-10-06T09:37:26.483Z,101711.75
2022-10-06T09:40:44.831Z,101719.25
2022-10-06T09:43:30.451Z,101714.00
2022-10-06T09:46:24.548Z,101736.06
2022-10-06T09:49:20.920Z,101739.06
2022-10-06T09:52:18.090Z,101746.56
2022-10-06T09:55:13.480Z,101768.66
2022-10-06T09:58:01.676Z,101767.91
2022-10-06T10:00:45.384Z,101786.31
2022-10-06T10:03:23.846Z,101782.34
2022-10-06T10:06:11.881Z,101783.06
2022-10-06T10:08:49.117Z,101779.06
2022-10-06T10:11:44.637Z,101807.00
2022-10-06T10:14:29.043Z,101813.75
2022-10-06T10:17:19.467Z,101802.66
2022-10-06T10:19:58.488Z,101805.81
2022-10-06T10:22:40.434Z,101809.69
2022-10-06T10:25:44.835Z,101832.53
2022-10-06T10:28:52.006Z,101819.63
2022-10-06T10:31:42.000Z,101823.81
2022-10-06T10:34:39.874Z,101838.09
2022-10-06T10:37:20.525Z,101844.41
2022-10-06T10:40:03.716Z,101839.34
2022-10-06T10:42:48.348Z,101840.00
2022-10-06T10:45:35.731Z,101850.84
2022-10-06T10:48:23.619Z,101857.31
2022-10-06T10:51:09.576Z,101873.47
2022-10-06T10:53:54.041Z,101863.19
2022-10-06T10:56:33.095Z,101886.63
2022-10-06T10:59:21.218Z,101885.09
2022-10-06T11:02:05.939Z,101879.66
2022-10-06T11:04:50.462Z,101878.47
2022-10-06T11:07:35.957Z,101895.09
2022-10-06T11:10:20.748Z,101890.53
2022-10-06T11:13:17.274Z,101882.56
2022-10-06T11:16:16.550Z,101890.78
2022-10-06T11:19:18.474Z,101908.28
2022-10-06T11:22:05.314Z,101909.97
2022-10-06T11:24:51.462Z,101910.38
2022-10-06T11:27:46.650Z,101916.13
2022-10-06T11:30:27.049Z,101904.78
2022-10-06T11:33:14.798Z,101917.44
2022-10-06T11:35:54.574Z,101920.00
2022-10-06T11:38:40.603Z,101921.47
2022-10-06T11:41:27.444Z,101914.88
2022-10-06T11:44:14.337Z,101916.59
2022-10-06T11:47:00.030Z,101909.72
2022-10-06T11:49:53.286Z,101910.22
2022-10-06T11:53:00.127Z,101929.44
2022-10-06T11:55:37.566Z,101941.00
2022-10-06T11:58:41.472Z,101939.63
2022-10-06T12:01:56.884Z,101932.69
2022-10-06T12:04:36.027Z,101920.91
2022-10-06T12:07:14.892Z,101939.56
2022-10-06T12:09:55.964Z,101939.00
2022-10-06T12:13:07.982Z,101950.09
2022-10-06T12:19:25.701Z,101937.28
2022-10-06T12:22:14.119Z,101952.13
2022-10-06T12:25:07.303Z,101955.25
2022-10-06T12:28:07.672Z,101980.22
2022-10-06T12:31:18.247Z,101994.22
2022-10-06T12:33:57.531Z,101975.53
2022-10-06T12:36:36.632Z,101964.44
2022-10-06T12:39:28.175Z,101993.94
2022-10-06T12:42:20.620Z,102005.97
2022-10-06T12:44:57.821Z,102006.19
2022-10-06T12:47:44.565Z,102003.94
2022-10-06T12:50:28.565Z,101997.69
2022-10-06T12:53:09.603Z,102005.91
2022-10-06T12:55:51.365Z,102024.34
2022-10-06T12:58:37.477Z,101997.44
2022-10-06T13:01:18.179Z,102017.75
2022-10-06T13:03:57.194Z,102027.41
2022-10-06T13:06:38.321Z,102023.44
2022-10-06T13:09:20.572Z,102017.47
2022-10-06T13:11:59.100Z,102039.28
2022-10-06T13:14:43.301Z,102025.53
2022-10-06T13:17:24.142Z,102018.44
2022-10-06T13:20:07.144Z,102028.72
2022-10-06T13:22:45.998Z,102043.44
2022-10-06T13:25:25.663Z,102035.44
2022-10-06T13:28:05.670Z,102037.91
2022-10-06T13:30:57.109Z,102042.47
2022-10-06T13:33:42.091Z,102040.66
2022-10-06T13:36:24.101Z,102050.34
2022-10-06T13:39:01.863Z,102052.91
2022-10-06T13:41:45.982Z,102055.19
2022-10-06T13:44:36.502Z,102054.94
2022-10-06T13:47:25.090Z,102062.03
2022-10-06T13:50:08.686Z,102049.28
2022-10-06T13:52:51.032Z,102057.19
2022-10-06T13:55:31.684Z,102062.84
2022-10-06T13:58:21.163Z,102055.78
2022-10-06T14:01:01.299Z,102063.97
2022-10-06T14:03:41.571Z,102066.53
2022-10-06T14:06:22.623Z,102076.44
2022-10-06T14:09:02.542Z,102067.06
2022-10-06T14:11:41.266Z,102074.44
2022-10-06T14:14:21.951Z,102087.44
2022-10-06T14:16:59.124Z,102080.06
2022-10-06T14:19:42.203Z,102096.97
2022-10-06T14:22:35.672Z,102097.78
2022-10-06T14:25:16.683Z,102090.09
2022-10-06T14:27:53.527Z,102099.34
2022-10-06T14:30:31.082Z,102117.38
2022-10-06T14:33:08.227Z,102105.66
2022-10-06T14:35:48.483Z,102105.38
2022-10-06T14:38:25.664Z,102118.44
2022-10-06T14:41:06.782Z,102109.59
2022-10-06T14:43:43.924Z,102117.66
2022-10-06T14:46:21.503Z,102113.25
2022-10-06T14:48:59.103Z,102114.75
2022-10-06T14:51:40.204Z,102120.50
2022-10-06T14:54:17.085Z,102120.59
2022-10-06T14:56:55.351Z,102131.19
2022-10-06T14:59:32.369Z,102123.25
2022-10-06T15:02:10.582Z,102134.25
2022-10-06T15:04:47.823Z,102132.72
2022-10-06T15:07:39.988Z,102141.97
2022-10-06T15:10:17.051Z,102137.88
2022-10-06T15:12:54.284Z,102147.66
2022-10-06T15:15:34.103Z,102167.41
2022-10-06T15:18:11.623Z,102168.41
2022-10-06T15:20:51.772Z,102170.34
2022-10-06T15:23:31.606Z,102176.94
2022-10-06T15:26:21.623Z,102188.78
2022-10-06T15:29:07.110Z,102167.44
2022-10-06T15:31:46.745Z,102176.88
2022-10-06T15:34:27.383Z,102178.06
2022-10-06T15:37:05.103Z,102185.38
2022-10-06T15:39:46.967Z,102184.59
2022-10-06T15:42:25.524Z,102193.63
2022-10-06T15:45:07.175Z,102177.97
2022-10-06T15:47:44.664Z,102202.44
2022-10-06T15:50:22.226Z,102203.09
2022-10-06T15:52:59.796Z,102194.81
2022-10-06T15:55:41.146Z,102211.81
2022-10-06T15:58:18.024Z,102214.97
2022-10-06T16:00:56.835Z,102226.69
2022-10-06T16:03:41.240Z,102232.03
2022-10-06T16:06:21.044Z,102243.81
2022-10-06T16:08:57.997Z,102229.47
2022-10-06T16:11:38.119Z,102238.28
2022-10-06T16:14:15.383Z,102247.47
2022-10-06T16:16:53.022Z,102252.28
2022-10-06T16:19:31.671Z,102257.88
2022-10-06T16:22:12.174Z,102271.78
2022-10-06T16:24:56.788Z,102278.25
2022-10-06T16:27:40.085Z,102281.34
2022-10-06T16:30:19.824Z,102286.91
2022-10-06T16:32:57.131Z,102283.16
2022-10-06T16:35:34.845Z,102284.13
2022-10-06T16:38:13.828Z,102285.06
2022-10-06T16:40:59.548Z,102285.19
2022-10-06T16:43:42.148Z,102284.78
2022-10-06T16:46:23.011Z,102285.38
2022-10-06T16:49:05.076Z,102290.22
2022-10-06T16:51:46.555Z,102300.16
2022-10-06T16:54:24.336Z,102303.06
2022-10-06T16:57:07.013Z,102299.53
2022-10-06T16:59:47.812Z,102311.28
2022-10-06T17:02:25.143Z,102310.00
2022-10-06T17:05:03.182Z,102313.59
2022-10-06T17:07:40.008Z,102320.88
2022-10-06T17:10:20.452Z,102314.78
2022-10-06T17:12:58.171Z,102321.38
2022-10-06T17:15:38.016Z,102319.69
2022-10-06T17:18:14.998Z,102326.41
2022-10-06T17:20:58.889Z,102322.75
2022-10-06T17:23:36.122Z,102321.16
2022-10-06T17:26:18.508Z,102322.13
2022-10-06T17:28:59.199Z,102321.56
2022-10-06T17:31:41.768Z,102321.34
2022-10-06T17:34:24.405Z,102325.19
2022-10-06T17:37:04.878Z,102326.13
2022-10-06T17:39:46.828Z,102328.28
2022-10-06T17:42:24.547Z,102334.84
2022-10-06T17:45:02.469Z,102341.25
2022-10-06T17:47:42.446Z,102351.94
